createdAt,value
2023-12-19T00:01:42.216Z,68
2023-12-19T00:05:07.502Z,68
2023-12-19T00:08:32.751Z,68
2023-12-19T00:11:58.048Z,68
2023-12-19T00:15:23.393Z,68
2023-12-19T00:18:48.813Z,70
2023-12-19T00:22:13.953Z,69
2023-12-19T00:25:39.212Z,69
2023-12-19T00:29:04.494Z,69
2023-12-19T00:32:29.826Z,69
2023-12-19T00:35:55.116Z,68
2023-12-19T00:39:20.410Z,67
2023-12-19T00:42:45.946Z,68
2023-12-19T00:46:10.922Z,68
2023-12-19T00:49:36.268Z,67
2023-12-19T00:53:01.511Z,67
2023-12-19T00:56:26.766Z,67
2023-12-19T00:59:52.022Z,66
2023-12-19T01:03:17.305Z,67
2023-12-19T01:06:42.608Z,65
2023-12-19T01:10:07.918Z,65
2023-12-19T01:13:33.162Z,66
2023-12-19T01:16:58.440Z,66
2023-12-19T01:20:23.710Z,66
2023-12-19T01:23:48.995Z,67
2023-12-19T01:27:14.296Z,68
2023-12-19T01:30:39.752Z,68
2023-12-19T01:34:04.941Z,69
2023-12-19T01:37:30.077Z,70
2023-12-19T01:40:55.354Z,70
2023-12-19T01:44:20.636Z,71
2023-12-19T01:47:45.975Z,71
2023-12-19T01:51:11.141Z,71
2023-12-19T01:54:36.451Z,70
2023-12-19T01:58:01.818Z,70
2023-12-19T02:01:27.067Z,70
2023-12-19T02:04:52.375Z,70
2023-12-19T02:08:17.557Z,70
2023-12-19T02:11:42.837Z,70
2023-12-19T02:15:08.129Z,71
2023-12-19T02:18:33.565Z,70
2023-12-19T02:21:58.705Z,70
2023-12-19T02:25:23.965Z,70
2023-12-19T02:28:49.258Z,70
2023-12-19T02:32:14.588Z,70
2023-12-19T02:35:39.869Z,70
2023-12-19T02:39:05.083Z,70
2023-12-19T02:42:30.444Z,70
2023-12-19T02:45:55.680Z,70
2023-12-19T02:49:20.956Z,70
2023-12-19T02:52:46.370Z,70
2023-12-19T02:56:11.475Z,70
2023-12-19T02:59:36.735Z,70
2023-12-19T03:03:02.054Z,70
2023-12-19T03:06:27.294Z,71
2023-12-19T03:09:52.597Z,71
2023-12-19T03:13:17.869Z,71
2023-12-19T03:16:43.174Z,71
2023-12-19T03:20:08.448Z,71
2023-12-19T03:23:33.723Z,71
2023-12-19T03:26:59.032Z,70
2023-12-19T03:30:24.282Z,70
2023-12-19T03:33:49.573Z,69
2023-12-19T03:37:14.832Z,69
2023-12-19T03:40:40.097Z,69
2023-12-19T03:44:05.384Z,69
2023-12-19T03:47:30.672Z,70
2023-12-19T03:50:55.953Z,70
2023-12-19T03:54:21.249Z,70
2023-12-19T03:57:46.501Z,70
2023-12-19T04:01:11.823Z,71
2023-12-19T04:04:37.116Z,71
2023-12-19T04:08:02.343Z,72
2023-12-19T04:11:27.588Z,72
2023-12-19T04:14:52.874Z,72
2023-12-19T04:18:18.267Z,72
2023-12-19T04:21:43.526Z,72
2023-12-19T04:25:08.820Z,72
2023-12-19T04:28:34.010Z,73
2023-12-19T04:31:59.301Z,74
2023-12-19T04:35:24.620Z,74
2023-12-19T04:38:49.856Z,75
2023-12-19T04:42:15.138Z,75
2023-12-19T04:45:40.406Z,75
2023-12-19T04:49:05.695Z,75
2023-12-19T04:52:30.963Z,74
2023-12-19T04:55:56.197Z,74
2023-12-19T04:59:21.481Z,74
2023-12-19T05:02:46.920Z,74
2023-12-19T05:06:12.007Z,73
2023-12-19T05:09:37.315Z,73
2023-12-19T05:13:02.572Z,72
2023-12-19T05:16:27.815Z,73
2023-12-19T05:19:53.698Z,73
2023-12-19T05:23:18.378Z,73
2023-12-19T05:26:43.697Z,73
2023-12-19T05:30:08.987Z,74
2023-12-19T05:33:34.324Z,73
2023-12-19T05:36:59.561Z,74
2023-12-19T05:40:24.779Z,75
2023-12-19T05:43:50.110Z,75
2023-12-19T05:47:15.356Z,74
2023-12-19T05:50:40.662Z,75
2023-12-19T05:54:06.149Z,75
2023-12-19T05:57:31.433Z,75
2023-12-19T06:00:57.117Z,75
2023-12-19T06:04:22.034Z,75
2023-12-19T06:07:47.244Z,77
2023-12-19T06:11:12.536Z,76
2023-12-19T06:14:37.880Z,76
2023-12-19T06:18:03.256Z,77
2023-12-19T06:21:28.459Z,77
2023-12-19T06:24:53.703Z,78
2023-12-19T06:28:18.939Z,78
2023-12-19T06:31:44.306Z,79
2023-12-19T06:35:09.554Z,79
2023-12-19T06:38:34.835Z,79
2023-12-19T06:42:00.211Z,79
2023-12-19T06:45:25.632Z,79
2023-12-19T06:48:51.062Z,79
2023-12-19T06:52:16.353Z,79
2023-12-19T06:55:41.615Z,79
2023-12-19T06:59:06.876Z,79
2023-12-19T07:02:32.124Z,79
2023-12-19T07:05:57.410Z,79
2023-12-19T07:09:22.701Z,78
2023-12-19T07:12:47.951Z,79
2023-12-19T07:16:13.228Z,78
2023-12-19T07:19:38.626Z,78
2023-12-19T07:23:03.820Z,78
2023-12-19T07:26:29.138Z,77
2023-12-19T07:29:54.431Z,77
2023-12-19T07:33:19.757Z,77
2023-12-19T07:36:45.056Z,77
2023-12-19T07:40:10.323Z,78
2023-12-19T07:43:35.610Z,79
2023-12-19T07:47:00.877Z,79
2023-12-19T07:50:26.154Z,79
2023-12-19T07:53:51.399Z,79
2023-12-19T07:57:16.695Z,79
2023-12-19T08:00:42.022Z,79
2023-12-19T08:04:07.282Z,79
2023-12-19T08:07:32.523Z,80
2023-12-19T08:10:57.831Z,80
2023-12-19T08:14:23.153Z,79
2023-12-19T08:17:48.495Z,79
2023-12-19T08:21:13.711Z,79
2023-12-19T08:24:39.578Z,79
2023-12-19T08:28:04.865Z,78
2023-12-19T08:31:30.160Z,77
2023-12-19T08:34:55.717Z,77
2023-12-19T08:38:20.672Z,76
2023-12-19T08:41:45.930Z,76
2023-12-19T08:45:11.212Z,76
2023-12-19T08:48:36.524Z,75
2023-12-19T08:52:01.849Z,76
2023-12-19T08:55:27.022Z,76
2023-12-19T08:58:52.352Z,76
2023-12-19T09:02:17.615Z,76
2023-12-19T09:05:42.910Z,77
2023-12-19T09:09:08.191Z,77
2023-12-19T09:12:33.453Z,77
2023-12-19T09:15:58.725Z,77
2023-12-19T09:19:24.001Z,78
2023-12-19T09:22:49.245Z,77
2023-12-19T09:26:14.674Z,77
2023-12-19T09:29:39.906Z,78
2023-12-19T09:33:05.189Z,78
2023-12-19T09:36:30.593Z,78
2023-12-19T09:39:57.194Z,78
2023-12-19T09:43:21.049Z,78
2023-12-19T09:46:46.279Z,77
2023-12-19T09:50:11.567Z,77
2023-12-19T09:53:40.305Z,77
2023-12-19T09:57:02.090Z,77
2023-12-19T10:00:27.434Z,77
2023-12-19T10:03:52.693Z,77
2023-12-19T10:07:17.948Z,77
2023-12-19T10:10:43.211Z,77
2023-12-19T10:14:08.471Z,77
2023-12-19T10:17:33.819Z,77
2023-12-19T10:20:59.024Z,77
2023-12-19T10:24:24.335Z,78
2023-12-19T10:27:49.788Z,78
2023-12-19T10:31:15.207Z,77
2023-12-19T10:34:40.667Z,78
2023-12-19T10:38:06.753Z,77
2023-12-19T10:41:31.516Z,78
2023-12-19T10:44:56.911Z,79
2023-12-19T10:48:22.348Z,80
2023-12-19T10:51:47.758Z,80
2023-12-19T10:55:17.214Z,81
2023-12-19T10:58:38.640Z,81
2023-12-19T11:02:04.073Z,81
2023-12-19T11:05:29.419Z,83
2023-12-19T11:08:54.745Z,83
2023-12-19T11:12:20.064Z,84
2023-12-19T11:15:45.429Z,84
2023-12-19T11:19:14.288Z,84
2023-12-19T11:22:39.444Z,84
2023-12-19T11:26:04.986Z,84
2023-12-19T11:29:30.296Z,85
2023-12-19T11:32:55.727Z,84
2023-12-19T11:36:20.998Z,85
2023-12-19T11:39:46.410Z,85
2023-12-19T11:43:11.758Z,86
2023-12-19T11:46:37.079Z,86
2023-12-19T11:50:02.682Z,86
2023-12-19T11:53:28.071Z,86
2023-12-19T11:56:53.404Z,86
2023-12-19T12:00:18.762Z,85
2023-12-19T12:03:44.141Z,85
2023-12-19T12:07:09.514Z,86
2023-12-19T12:10:34.887Z,86
2023-12-19T12:14:00.675Z,85
2023-12-19T12:17:26.089Z,86
2023-12-19T12:20:51.353Z,85
2023-12-19T12:24:16.664Z,85
2023-12-19T12:27:42.161Z,85
2023-12-19T12:31:07.776Z,86
2023-12-19T12:34:32.834Z,86
2023-12-19T12:37:58.105Z,87
2023-12-19T12:41:23.482Z,87
2023-12-19T12:44:48.830Z,87
2023-12-19T12:48:14.220Z,88
2023-12-19T12:51:39.621Z,89
2023-12-19T12:55:05.120Z,89
2023-12-19T12:58:30.346Z,89
2023-12-19T13:01:55.772Z,88
2023-12-19T13:05:21.070Z,89
2023-12-19T13:08:46.494Z,90
2023-12-19T13:12:11.858Z,90
2023-12-19T13:15:37.220Z,89
2023-12-19T13:19:02.649Z,89
2023-12-19T13:22:27.949Z,89
2023-12-19T13:25:53.330Z,89
2023-12-19T13:29:18.808Z,90
2023-12-19T13:32:44.228Z,89
2023-12-19T13:36:09.636Z,89
2023-12-19T13:39:35.051Z,88
2023-12-19T13:43:00.510Z,88
2023-12-19T13:46:25.932Z,87
2023-12-19T13:49:51.504Z,86
2023-12-19T13:53:16.909Z,86
2023-12-19T13:56:42.452Z,86
2023-12-19T14:00:08.209Z,87
2023-12-19T14:03:33.559Z,87
2023-12-19T14:06:58.957Z,87
2023-12-19T14:10:24.440Z,87
2023-12-19T14:13:49.974Z,87
2023-12-19T14:17:15.526Z,86
2023-12-19T14:20:40.920Z,86
2023-12-19T14:24:07.700Z,87
2023-12-19T14:27:31.842Z,87
2023-12-19T14:30:57.358Z,87
2023-12-19T14:34:22.849Z,87
2023-12-19T14:37:48.236Z,87
2023-12-19T14:41:13.713Z,88
2023-12-19T14:44:39.384Z,88
2023-12-19T14:48:04.731Z,88
2023-12-19T14:51:30.204Z,87
2023-12-19T14:54:55.665Z,88
2023-12-19T14:58:21.128Z,88
2023-12-19T15:01:46.733Z,89
2023-12-19T15:05:12.093Z,89
2023-12-19T15:08:37.549Z,90
2023-12-19T15:12:02.834Z,90
2023-12-19T15:46:40.763Z,92
2023-12-19T15:50:04.962Z,92
2023-12-19T15:53:30.183Z,92
2023-12-19T15:56:55.490Z,92
2023-12-19T16:00:20.770Z,92
2023-12-19T16:03:46.084Z,92
2023-12-19T16:07:11.298Z,92
2023-12-19T16:10:37.444Z,92
2023-12-19T16:14:01.921Z,92
2023-12-19T16:17:27.148Z,91
2023-12-19T16:20:52.397Z,90
2023-12-19T16:24:17.640Z,89
2023-12-19T16:27:43.306Z,89
2023-12-19T16:31:08.452Z,89
2023-12-19T16:34:33.770Z,89
2023-12-19T16:37:58.956Z,90
2023-12-19T16:41:24.199Z,90
2023-12-19T16:44:49.505Z,91
2023-12-19T16:48:15.018Z,91
2023-12-19T16:51:40.631Z,92
2023-12-19T16:55:05.614Z,93
2023-12-19T16:58:36.571Z,93
2023-12-19T17:01:56.298Z,93
2023-12-19T17:05:21.699Z,93
2023-12-19T17:08:46.872Z,93
2023-12-19T17:12:12.238Z,93
2023-12-19T17:15:37.627Z,93
2023-12-19T17:19:02.968Z,93
2023-12-19T17:22:28.289Z,94
2023-12-19T17:25:53.617Z,94
2023-12-19T17:29:18.939Z,93
2023-12-19T17:32:44.537Z,93
2023-12-19T17:36:11.108Z,93
2023-12-19T17:39:34.874Z,93
2023-12-19T17:43:00.162Z,93
2023-12-19T17:46:25.494Z,93
2023-12-19T17:49:50.907Z,93
2023-12-19T17:53:16.150Z,93
2023-12-19T17:56:41.488Z,93
2023-12-19T18:00:06.810Z,93
2023-12-19T18:03:32.139Z,93
2023-12-19T18:06:57.444Z,93
2023-12-19T18:10:22.971Z,93
2023-12-19T18:13:48.278Z,93
2023-12-19T18:17:13.774Z,93
2023-12-19T18:20:39.631Z,93
2023-12-19T18:24:07.081Z,93
2023-12-19T18:27:30.542Z,93
2023-12-19T18:30:56.074Z,93
2023-12-19T18:34:21.562Z,93
2023-12-19T18:37:46.988Z,93
2023-12-19T18:41:12.455Z,93
2023-12-19T18:44:39.335Z,93
2023-12-19T18:48:05.084Z,93
2023-12-19T18:51:30.686Z,93
2023-12-19T18:54:56.283Z,94
2023-12-19T18:58:21.876Z,94
2023-12-19T19:01:47.516Z,94
2023-12-19T19:05:13.085Z,94
2023-12-19T19:08:38.731Z,94
2023-12-19T19:12:04.458Z,94
2023-12-19T19:15:30.129Z,94
2023-12-19T19:18:55.816Z,95
2023-12-19T19:22:21.513Z,95
2023-12-19T19:25:47.148Z,95
2023-12-19T19:29:12.855Z,95
2023-12-19T19:32:38.500Z,95
2023-12-19T19:36:04.188Z,94
2023-12-19T19:39:29.808Z,94
2023-12-19T19:42:55.492Z,94
2023-12-19T19:46:21.116Z,95
2023-12-19T19:49:46.611Z,95
2023-12-19T19:53:12.001Z,95
2023-12-19T19:56:37.463Z,95
2023-12-19T20:00:02.849Z,95
2023-12-19T20:03:28.289Z,95
2023-12-19T20:06:53.781Z,95
2023-12-19T20:10:19.269Z,95
2023-12-19T20:13:44.684Z,96
2023-12-19T20:17:10.038Z,96
2023-12-19T20:20:35.583Z,96
2023-12-19T20:24:03.153Z,96
2023-12-19T20:27:26.447Z,96
2023-12-19T20:30:51.926Z,96
2023-12-19T20:34:17.362Z,96
2023-12-19T20:37:43.023Z,96
2023-12-19T20:41:08.172Z,96
2023-12-19T20:44:33.623Z,96
2023-12-19T20:47:59.115Z,96
2023-12-19T20:51:24.578Z,96
2023-12-19T20:54:50.032Z,96
2023-12-19T20:58:15.425Z,96
2023-12-19T21:01:40.876Z,96
2023-12-19T21:05:06.336Z,96
2023-12-19T21:08:31.728Z,95
2023-12-19T21:11:57.313Z,95
2023-12-19T21:15:22.756Z,95
2023-12-19T21:18:48.400Z,94
2023-12-19T21:22:13.797Z,95
2023-12-19T21:25:39.057Z,95
2023-12-19T21:29:04.469Z,95
2023-12-19T21:32:29.898Z,95
2023-12-19T21:35:55.326Z,95
2023-12-19T21:39:20.731Z,95
2023-12-19T21:42:46.423Z,95
2023-12-19T21:46:11.586Z,95
2023-12-19T21:49:37.075Z,94
2023-12-19T21:53:02.460Z,94
2023-12-19T21:56:27.881Z,94
2023-12-19T21:59:53.292Z,95
2023-12-19T22:03:18.699Z,94
2023-12-19T22:06:44.127Z,94
2023-12-19T22:10:09.527Z,94
2023-12-19T22:13:34.852Z,94
2023-12-19T22:17:00.249Z,93
2023-12-19T22:20:25.721Z,93
2023-12-19T22:23:51.052Z,93
2023-12-19T22:27:16.388Z,93
2023-12-19T22:30:41.870Z,93
2023-12-19T22:34:07.229Z,93
2023-12-19T22:37:32.607Z,93
2023-12-19T22:40:58.021Z,93
2023-12-19T22:44:23.420Z,94
2023-12-19T22:47:49.390Z,94
2023-12-19T22:51:14.137Z,94
2023-12-19T22:54:40.782Z,94
2023-12-19T22:58:04.937Z,94
2023-12-19T23:01:31.310Z,93
2023-12-19T23:04:55.685Z,93
2023-12-19T23:08:20.989Z,93
2023-12-19T23:11:46.422Z,93
2023-12-19T23:15:11.813Z,93
2023-12-19T23:18:37.207Z,93
2023-12-19T23:22:02.528Z,94
2023-12-19T23:25:27.932Z,94
2023-12-19T23:28:53.387Z,94
2023-12-19T23:32:18.701Z,94
2023-12-19T23:35:44.082Z,94
2023-12-19T23:39:09.450Z,94
2023-12-19T23:42:34.888Z,95
2023-12-19T23:46:00.357Z,94
2023-12-19T23:49:25.742Z,94
2023-12-19T23:52:51.122Z,94
2023-12-19T23:56:16.478Z,94
2023-12-19T23:59:41.964Z,94
